createdAt,value
2023-05-23T00:00:59.778Z,94050.66
2023-05-23T00:03:27.610Z,94049.94
2023-05-23T00:05:56.679Z,94058.00
2023-05-23T00:08:23.630Z,94054.13
2023-05-23T00:10:50.476Z,94051.06
2023-05-23T00:13:17.720Z,94053.41
2023-05-23T00:15:45.256Z,94060.00
2023-05-23T00:18:12.333Z,94060.44
2023-05-23T00:20:43.792Z,94072.84
2023-05-23T00:23:12.355Z,94072.09
2023-05-23T00:25:41.250Z,94067.44
2023-05-23T00:28:08.300Z,94066.66
2023-05-23T00:30:35.004Z,94058.88
2023-05-23T00:33:02.206Z,94060.00
2023-05-23T00:35:28.928Z,94061.53
2023-05-23T00:37:56.368Z,94069.13
2023-05-23T00:40:23.768Z,94076.03
2023-05-23T00:42:50.713Z,94078.88
2023-05-23T00:45:17.970Z,94068.34
2023-05-23T00:47:47.188Z,94081.56
2023-05-23T00:50:15.845Z,94069.19
2023-05-23T00:52:48.158Z,94073.88
2023-05-23T00:55:15.137Z,94070.69
2023-05-23T00:57:44.458Z,94069.84
2023-05-23T01:00:13.481Z,94074.91
2023-05-23T01:02:47.364Z,94080.34
2023-05-23T01:05:17.794Z,94070.22
2023-05-23T01:07:46.810Z,94071.31
2023-05-23T01:10:15.148Z,94070.81
2023-05-23T01:13:13.404Z,94077.03
2023-05-23T01:15:46.361Z,94089.75
2023-05-23T01:18:24.734Z,94087.03
2023-05-23T01:20:59.771Z,94083.91
2023-05-23T01:23:59.268Z,94087.75
2023-05-23T01:26:32.623Z,94082.28
2023-05-23T01:29:24.107Z,94081.03
2023-05-23T01:31:54.660Z,94079.47
2023-05-23T01:34:21.769Z,94085.25
2023-05-23T01:36:53.733Z,94070.94
2023-05-23T01:39:20.406Z,94078.34
2023-05-23T01:41:48.682Z,94076.78
2023-05-23T01:44:15.974Z,94077.13
2023-05-23T01:46:44.536Z,94074.50
2023-05-23T01:49:13.845Z,94075.28
2023-05-23T01:51:41.393Z,94081.88
2023-05-23T01:54:08.530Z,94081.03
2023-05-23T01:56:35.659Z,94076.78
2023-05-23T01:59:03.722Z,94074.78
2023-05-23T02:01:31.465Z,94082.47
2023-05-23T02:03:58.518Z,94081.63
2023-05-23T02:06:25.282Z,94078.50
2023-05-23T02:08:52.096Z,94080.06
2023-05-23T02:11:18.771Z,94069.66
2023-05-23T02:13:45.508Z,94071.09
2023-05-23T02:16:14.034Z,94085.03
2023-05-23T02:18:40.988Z,94085.47
2023-05-23T02:21:08.335Z,94081.13
2023-05-23T02:23:37.476Z,94075.97
2023-05-23T02:26:04.194Z,94090.25
2023-05-23T02:28:30.929Z,94085.59
2023-05-23T02:30:57.851Z,94093.75
2023-05-23T02:33:24.982Z,94094.94
2023-05-23T02:35:52.667Z,94098.78
2023-05-23T02:38:20.816Z,94089.44
2023-05-23T02:40:47.573Z,94097.59
2023-05-23T02:43:14.344Z,94099.50
2023-05-23T02:45:41.483Z,94094.53
2023-05-23T02:48:08.745Z,94099.16
2023-05-23T02:50:35.677Z,94093.81
2023-05-23T02:53:02.369Z,94089.19
2023-05-23T02:55:29.110Z,94082.53
2023-05-23T02:57:56.886Z,94093.34
2023-05-23T03:00:24.017Z,94092.19
2023-05-23T03:02:54.695Z,94094.59
2023-05-23T03:05:21.690Z,94100.78
2023-05-23T03:07:48.477Z,94091.88
2023-05-23T03:10:15.805Z,94092.38
2023-05-23T03:12:42.686Z,94090.09
2023-05-23T03:15:10.669Z,94090.44
2023-05-23T03:17:40.600Z,94092.78
2023-05-23T03:20:10.049Z,94090.50
2023-05-23T03:22:38.888Z,94095.22
2023-05-23T03:25:06.608Z,94093.78
2023-05-23T03:27:33.562Z,94092.56
2023-05-23T03:30:00.423Z,94092.69
2023-05-23T03:32:27.921Z,94093.81
2023-05-23T03:34:54.806Z,94100.00
2023-05-23T03:37:21.683Z,94083.31
2023-05-23T03:39:48.601Z,94098.75
2023-05-23T03:42:15.597Z,94106.63
2023-05-23T03:44:42.474Z,94094.91
2023-05-23T03:47:09.972Z,94109.97
2023-05-23T03:49:39.695Z,94097.09
2023-05-23T03:52:06.826Z,94099.31
2023-05-23T03:54:34.503Z,94098.91
2023-05-23T03:57:01.953Z,94108.56
2023-05-23T03:59:30.104Z,94112.13
2023-05-23T04:01:59.134Z,94110.13
2023-05-23T04:04:26.525Z,94123.75
2023-05-23T04:06:53.837Z,94116.44
2023-05-23T04:09:21.189Z,94125.78
2023-05-23T04:11:49.882Z,94110.69
2023-05-23T04:14:20.354Z,94119.94
2023-05-23T04:16:48.384Z,94111.41
2023-05-23T04:19:16.560Z,94119.53
2023-05-23T04:21:43.344Z,94116.38
2023-05-23T04:24:13.728Z,94120.22
2023-05-23T04:26:40.587Z,94118.72
2023-05-23T04:29:07.440Z,94107.13
2023-05-23T04:31:34.479Z,94103.59
2023-05-23T04:34:02.709Z,94112.59
2023-05-23T04:36:32.373Z,94111.91
2023-05-23T04:38:59.077Z,94110.41
2023-05-23T04:41:26.835Z,94103.44
2023-05-23T04:43:54.796Z,94118.25
2023-05-23T04:46:27.112Z,94115.88
2023-05-23T04:49:23.606Z,94119.00
2023-05-23T04:51:51.272Z,94130.56
2023-05-23T04:54:25.020Z,94135.31
2023-05-23T04:56:53.381Z,94132.19
2023-05-23T04:59:21.308Z,94130.78
2023-05-23T05:01:48.003Z,94125.50
2023-05-23T05:04:15.606Z,94131.41
2023-05-23T05:06:42.705Z,94127.59
2023-05-23T05:09:09.876Z,94126.94
2023-05-23T05:11:36.818Z,94135.09
2023-05-23T05:14:03.466Z,94134.41
2023-05-23T05:16:30.846Z,94139.81
2023-05-23T05:18:57.834Z,94137.44
2023-05-23T05:21:24.569Z,94134.97
2023-05-23T05:23:51.633Z,94145.84
2023-05-23T05:26:19.021Z,94153.50
2023-05-23T05:28:45.743Z,94159.97
2023-05-23T05:31:15.492Z,94155.53
2023-05-23T05:33:46.102Z,94155.41
2023-05-23T05:36:14.945Z,94165.88
2023-05-23T05:38:42.048Z,94168.28
2023-05-23T05:41:09.447Z,94172.47
2023-05-23T05:43:40.456Z,94166.22
2023-05-23T05:46:07.156Z,94177.94
2023-05-23T05:48:34.233Z,94177.09
2023-05-23T05:51:05.911Z,94182.16
2023-05-23T05:53:34.040Z,94178.66
2023-05-23T05:56:02.822Z,94180.94
2023-05-23T05:58:31.055Z,94167.50
2023-05-23T06:01:01.156Z,94181.97
2023-05-23T06:03:28.089Z,94185.09
2023-05-23T06:05:55.768Z,94191.41
2023-05-23T06:08:22.524Z,94187.63
2023-05-23T06:10:49.444Z,94195.84
2023-05-23T06:13:16.687Z,94196.03
2023-05-23T06:15:46.886Z,94196.56
2023-05-23T06:18:14.270Z,94195.16
2023-05-23T06:20:41.342Z,94188.66
2023-05-23T06:23:12.870Z,94192.56
2023-05-23T06:25:40.210Z,94191.78
2023-05-23T06:28:06.913Z,94188.97
2023-05-23T06:30:37.040Z,94195.94
2023-05-23T06:33:05.088Z,94192.09
2023-05-23T06:35:31.822Z,94187.34
2023-05-23T06:38:00.963Z,94190.44
2023-05-23T06:40:27.702Z,94201.25
2023-05-23T06:42:54.484Z,94194.63
2023-05-23T06:45:47.621Z,94205.16
2023-05-23T06:48:14.536Z,94198.59
2023-05-23T06:50:42.025Z,94199.38
2023-05-23T06:53:10.817Z,94207.09
2023-05-23T06:55:37.542Z,94216.28
2023-05-23T06:58:06.417Z,94206.47
2023-05-23T07:00:34.642Z,94207.97
2023-05-23T07:03:16.746Z,94213.34
2023-05-23T07:05:44.176Z,94209.66
2023-05-23T07:08:11.951Z,94205.53
2023-05-23T07:10:42.019Z,94207.25
2023-05-23T07:13:22.904Z,94221.81
2023-05-23T07:15:49.613Z,94218.88
2023-05-23T07:18:16.611Z,94220.47
2023-05-23T07:20:43.542Z,94228.69
2023-05-23T07:23:14.476Z,94223.53
2023-05-23T07:25:53.759Z,94227.41
2023-05-23T07:28:31.280Z,94234.22
2023-05-23T07:30:59.028Z,94230.25
2023-05-23T07:33:26.033Z,94231.78
2023-05-23T07:35:57.976Z,94237.13
2023-05-23T07:38:26.854Z,94245.78
2023-05-23T07:41:06.638Z,94243.78
2023-05-23T07:43:38.113Z,94244.00
2023-05-23T07:46:05.095Z,94234.88
2023-05-23T07:48:32.394Z,94239.41
2023-05-23T07:50:59.527Z,94242.06
2023-05-23T07:53:26.846Z,94243.72
2023-05-23T07:55:53.899Z,94232.63
2023-05-23T07:58:23.279Z,94237.97
2023-05-23T08:00:52.739Z,94238.13
2023-05-23T08:03:45.872Z,94237.25
2023-05-23T08:06:19.599Z,94244.72
2023-05-23T08:08:46.491Z,94249.91
2023-05-23T08:11:15.033Z,94247.25
2023-05-23T08:13:46.617Z,94246.41
2023-05-23T08:16:37.695Z,94261.94
2023-05-23T08:19:09.032Z,94253.78
2023-05-23T08:21:36.568Z,94247.19
2023-05-23T08:24:03.614Z,94254.13
2023-05-23T08:26:34.944Z,94254.50
2023-05-23T08:29:04.005Z,94247.16
2023-05-23T08:31:32.318Z,94262.63
2023-05-23T08:34:00.197Z,94251.78
2023-05-23T08:36:28.727Z,94250.00
2023-05-23T08:38:56.510Z,94254.50
2023-05-23T08:41:30.729Z,94251.28
2023-05-23T08:44:04.497Z,94256.72
2023-05-23T08:46:47.156Z,94262.09
2023-05-23T08:49:23.817Z,94249.56
2023-05-23T08:51:52.817Z,94264.38
2023-05-23T08:54:22.426Z,94269.00
2023-05-23T08:56:49.433Z,94260.38
2023-05-23T08:59:16.628Z,94262.75
2023-05-23T09:01:46.217Z,94268.25
2023-05-23T09:04:15.248Z,94264.00
2023-05-23T09:06:57.194Z,94258.53
2023-05-23T09:09:25.316Z,94258.50
2023-05-23T09:11:52.738Z,94269.69
2023-05-23T09:14:19.511Z,94267.31
2023-05-23T09:16:49.239Z,94278.16
2023-05-23T09:19:19.252Z,94271.13
2023-05-23T09:21:54.423Z,94272.59
2023-05-23T09:24:34.808Z,94272.50
2023-05-23T09:27:03.132Z,94279.84
2023-05-23T09:29:30.837Z,94274.72
2023-05-23T09:32:11.099Z,94269.31
2023-05-23T09:34:59.745Z,94274.91
2023-05-23T09:37:32.720Z,94261.56
2023-05-23T09:40:10.641Z,94272.88
2023-05-23T09:42:46.726Z,94272.94
2023-05-23T09:45:14.789Z,94265.91
2023-05-23T09:47:52.258Z,94273.22
2023-05-23T09:50:20.944Z,94283.66
2023-05-23T09:52:48.253Z,94288.53
2023-05-23T09:55:15.594Z,94288.38
2023-05-23T09:57:44.341Z,94293.91
2023-05-23T10:00:13.761Z,94287.84
2023-05-23T10:02:54.160Z,94288.75
2023-05-23T10:05:31.113Z,94287.84
2023-05-23T10:08:05.287Z,94284.41
2023-05-23T10:10:35.316Z,94284.97
2023-05-23T10:13:06.211Z,94284.47
2023-05-23T10:15:39.434Z,94277.69
2023-05-23T10:18:11.433Z,94280.22
2023-05-23T10:20:40.489Z,94286.88
2023-05-23T10:23:07.588Z,94275.59
2023-05-23T10:25:37.292Z,94283.78
2023-05-23T10:28:05.103Z,94284.53
2023-05-23T10:30:32.271Z,94290.38
2023-05-23T10:32:59.603Z,94289.56
2023-05-23T10:35:47.936Z,94298.09
2023-05-23T10:38:33.195Z,94299.44
2023-05-23T10:41:07.681Z,94300.81
2023-05-23T10:43:46.952Z,94300.41
2023-05-23T10:46:14.877Z,94294.56
2023-05-23T10:48:43.239Z,94296.59
2023-05-23T10:51:14.780Z,94294.69
2023-05-23T10:53:43.799Z,94298.97
2023-05-23T10:56:23.518Z,94295.91
2023-05-23T10:58:58.028Z,94293.00
2023-05-23T11:01:25.352Z,94296.31
2023-05-23T11:03:55.658Z,94302.91
2023-05-23T11:06:45.169Z,94299.78
2023-05-23T11:09:19.302Z,94297.06
2023-05-23T11:11:49.117Z,94295.06
2023-05-23T11:14:16.001Z,94299.13
2023-05-23T11:16:46.663Z,94295.00
2023-05-23T11:19:19.977Z,94301.22
2023-05-23T11:21:50.225Z,94293.44
2023-05-23T11:24:17.734Z,94292.50
2023-05-23T11:27:04.316Z,94293.22
2023-05-23T11:29:31.478Z,94292.97
2023-05-23T11:31:58.628Z,94295.53
2023-05-23T11:34:26.421Z,94299.78
2023-05-23T11:36:54.866Z,94296.63
2023-05-23T11:39:21.880Z,94299.75
2023-05-23T11:42:02.393Z,94290.78
2023-05-23T11:44:30.656Z,94297.19
2023-05-23T11:47:04.690Z,94303.72
2023-05-23T11:49:32.556Z,94304.28
2023-05-23T11:52:00.318Z,94300.13
2023-05-23T11:54:27.538Z,94302.50
2023-05-23T11:56:55.688Z,94300.97
2023-05-23T11:59:26.565Z,94300.56
2023-05-23T12:01:54.117Z,94304.06
2023-05-23T12:04:21.030Z,94305.63
2023-05-23T12:06:49.403Z,94297.09
2023-05-23T12:09:17.073Z,94295.06
2023-05-23T12:11:45.439Z,94284.94
2023-05-23T12:14:17.063Z,94292.34
2023-05-23T12:16:48.408Z,94291.59
2023-05-23T12:19:17.919Z,94300.94
2023-05-23T12:21:46.761Z,94293.13
2023-05-23T12:24:21.342Z,94288.84
2023-05-23T12:27:02.712Z,94281.84
2023-05-23T12:29:33.771Z,94281.44
2023-05-23T12:32:03.009Z,94277.69
2023-05-23T12:34:29.811Z,94273.00
2023-05-23T12:39:36.432Z,94274.16
2023-05-23T12:42:10.456Z,94277.69
2023-05-23T12:44:37.390Z,94289.03
2023-05-23T12:47:04.462Z,94285.44
2023-05-23T12:49:31.407Z,94284.16
2023-05-23T12:51:58.153Z,94284.13
2023-05-23T12:54:24.913Z,94289.47
2023-05-23T12:56:51.604Z,94288.69
2023-05-23T12:59:18.356Z,94289.75
2023-05-23T13:01:45.101Z,94289.22
2023-05-23T13:04:11.924Z,94290.38
2023-05-23T13:06:38.606Z,94282.44
2023-05-23T13:09:05.615Z,94280.25
2023-05-23T13:11:32.447Z,94283.47
2023-05-23T13:13:59.130Z,94289.16
2023-05-23T13:16:26.064Z,94288.41
2023-05-23T13:18:53.321Z,94294.50
2023-05-23T13:21:20.113Z,94293.66
2023-05-23T13:23:46.835Z,94291.53
2023-05-23T13:26:14.682Z,94287.75
2023-05-23T13:28:41.516Z,94297.19
2023-05-23T13:31:08.308Z,94293.38
2023-05-23T13:33:35.096Z,94292.78
2023-05-23T13:36:01.858Z,94286.56
2023-05-23T13:38:30.884Z,94290.84
2023-05-23T13:40:57.654Z,94282.91
2023-05-23T13:43:24.470Z,94291.75
2023-05-23T13:45:51.252Z,94295.19
2023-05-23T13:48:17.896Z,94292.72
2023-05-23T13:50:45.315Z,94287.28
2023-05-23T13:53:16.677Z,94282.63
2023-05-23T13:55:45.371Z,94288.09
2023-05-23T13:58:12.839Z,94291.22
2023-05-23T14:00:40.504Z,94287.72
2023-05-23T14:03:08.693Z,94293.97
2023-05-23T14:05:36.545Z,94296.69
2023-05-23T14:08:04.595Z,94291.22
2023-05-23T14:10:33.410Z,94289.66
2023-05-23T14:13:00.228Z,94283.03
2023-05-23T14:15:27.826Z,94276.81
2023-05-23T14:17:55.985Z,94269.03
2023-05-23T14:20:23.438Z,94274.44
2023-05-23T14:22:51.283Z,94272.47
2023-05-23T14:25:18.766Z,94279.69
2023-05-23T14:27:46.755Z,94271.22
2023-05-23T14:30:13.661Z,94257.19
2023-05-23T14:32:41.177Z,94285.94
2023-05-23T14:35:10.731Z,94282.13
2023-05-23T14:37:37.839Z,94288.06
2023-05-23T14:40:05.917Z,94277.94
2023-05-23T14:42:32.987Z,94274.06
2023-05-23T14:44:59.675Z,94275.19
2023-05-23T14:47:26.638Z,94270.53
2023-05-23T14:49:53.377Z,94277.63
2023-05-23T14:52:20.199Z,94275.28
2023-05-23T14:54:46.904Z,94271.38
2023-05-23T14:57:13.609Z,94283.84
2023-05-23T14:59:40.507Z,94287.72
2023-05-23T15:02:08.268Z,94293.94
2023-05-23T15:04:36.018Z,94280.31
2023-05-23T15:07:02.825Z,94298.59
2023-05-23T15:09:29.562Z,94282.28
2023-05-23T15:11:56.350Z,94295.13
2023-05-23T15:14:23.365Z,94283.84
2023-05-23T15:16:50.498Z,94297.44
2023-05-23T15:19:17.431Z,94292.00
2023-05-23T15:21:50.512Z,94291.63
2023-05-23T15:24:18.457Z,94283.81
2023-05-23T15:26:45.254Z,94278.31
2023-05-23T15:29:13.296Z,94278.72
2023-05-23T15:31:40.118Z,94284.94
2023-05-23T15:34:06.898Z,94275.53
2023-05-23T15:36:33.575Z,94290.72
2023-05-23T15:39:00.388Z,94287.59
2023-05-23T15:41:27.980Z,94291.09
2023-05-23T15:43:54.711Z,94278.25
2023-05-23T15:46:21.536Z,94296.16
2023-05-23T15:48:48.358Z,94291.91
2023-05-23T15:51:15.182Z,94281.84
2023-05-23T15:53:58.911Z,94274.44
2023-05-23T15:56:26.402Z,94294.72
2023-05-23T15:58:53.082Z,94298.22
2023-05-23T16:01:19.815Z,94288.13
2023-05-23T16:03:46.900Z,94287.28
2023-05-23T16:06:13.717Z,94286.84
2023-05-23T16:08:40.477Z,94289.94
2023-05-23T16:11:07.202Z,94292.22
2023-05-23T16:13:33.898Z,94285.19
2023-05-23T16:16:00.634Z,94284.84
2023-05-23T16:18:27.463Z,94287.97
2023-05-23T16:20:54.304Z,94282.16
2023-05-23T16:23:21.133Z,94286.84
2023-05-23T16:25:48.434Z,94277.16
2023-05-23T16:28:18.050Z,94280.66
2023-05-23T16:30:44.727Z,94271.28
2023-05-23T16:33:11.922Z,94275.16
2023-05-23T16:35:38.840Z,94280.97
2023-05-23T16:38:05.842Z,94282.88
2023-05-23T16:40:32.537Z,94289.84
2023-05-23T16:42:59.356Z,94284.38
2023-05-23T16:45:26.032Z,94284.34
2023-05-23T16:47:52.799Z,94281.13
2023-05-23T16:50:19.485Z,94294.66
2023-05-23T16:52:46.330Z,94283.25
2023-05-23T16:55:13.011Z,94288.66
2023-05-23T16:57:40.056Z,94286.28
2023-05-23T17:00:07.794Z,94295.66
2023-05-23T17:02:34.735Z,94292.59
2023-05-23T17:05:01.553Z,94287.22
2023-05-23T17:07:28.240Z,94277.56
2023-05-23T17:09:54.942Z,94288.47
2023-05-23T17:12:21.871Z,94295.88
2023-05-23T17:14:49.124Z,94296.91
2023-05-23T17:17:16.081Z,94287.88
2023-05-23T17:19:42.843Z,94291.31
2023-05-23T17:22:09.670Z,94298.72
2023-05-23T17:24:36.983Z,94304.56
2023-05-23T17:27:04.227Z,94295.56
2023-05-23T17:29:31.785Z,94295.09
2023-05-23T17:31:58.603Z,94286.88
2023-05-23T17:34:25.616Z,94300.88
2023-05-23T17:36:52.829Z,94311.19
2023-05-23T17:39:19.847Z,94304.53
2023-05-23T17:41:46.729Z,94305.53
2023-05-23T17:44:13.432Z,94308.97
2023-05-23T17:46:40.146Z,94303.50
2023-05-23T17:49:07.267Z,94318.09
2023-05-23T17:51:33.986Z,94304.41
2023-05-23T17:54:00.851Z,94315.66
2023-05-23T17:56:27.517Z,94323.28
2023-05-23T17:58:54.260Z,94324.78
2023-05-23T18:01:21.106Z,94330.88
2023-05-23T18:03:49.102Z,94325.00
2023-05-23T18:06:15.932Z,94315.59
2023-05-23T18:08:42.630Z,94321.38
2023-05-23T18:11:09.731Z,94316.69
2023-05-23T18:13:36.416Z,94327.66
2023-05-23T18:16:03.132Z,94309.66
2023-05-23T18:18:29.889Z,94314.09
2023-05-23T18:20:56.754Z,94325.31
2023-05-23T18:23:23.413Z,94315.03
2023-05-23T18:25:50.202Z,94318.03
2023-05-23T18:28:16.865Z,94316.50
2023-05-23T18:30:43.657Z,94328.97
2023-05-23T18:33:10.724Z,94331.28
2023-05-23T18:35:37.612Z,94324.28
2023-05-23T18:38:04.399Z,94325.38
2023-05-23T18:40:31.372Z,94329.97
2023-05-23T18:42:58.054Z,94326.69
2023-05-23T18:45:24.782Z,94342.19
2023-05-23T18:47:51.522Z,94336.34
2023-05-23T18:50:18.717Z,94335.44
2023-05-23T18:52:45.545Z,94335.31
2023-05-23T18:55:12.368Z,94358.13
2023-05-23T18:57:39.200Z,94358.22
2023-05-23T19:00:07.470Z,94351.16
2023-05-23T19:02:34.396Z,94356.78
2023-05-23T19:05:02.226Z,94360.22
2023-05-23T19:07:28.944Z,94349.22
2023-05-23T19:09:55.655Z,94366.28
2023-05-23T19:12:22.523Z,94366.88
2023-05-23T19:14:49.195Z,94376.69
2023-05-23T19:17:16.706Z,94373.59
2023-05-23T19:19:43.474Z,94380.28
2023-05-23T19:22:10.881Z,94397.28
2023-05-23T19:24:37.760Z,94408.88
2023-05-23T19:27:04.991Z,94398.78
2023-05-23T19:29:31.754Z,94389.56
2023-05-23T19:31:58.736Z,94402.63
2023-05-23T19:34:25.560Z,94412.31
2023-05-23T19:36:52.361Z,94412.81
2023-05-23T19:39:19.219Z,94418.22
2023-05-23T19:41:46.065Z,94417.44
2023-05-23T19:44:13.273Z,94410.72
2023-05-23T19:46:40.073Z,94420.13
2023-05-23T19:49:08.424Z,94421.53
2023-05-23T19:51:36.649Z,94423.72
2023-05-23T19:54:03.840Z,94431.13
2023-05-23T19:56:30.687Z,94428.69
2023-05-23T19:58:57.388Z,94430.34
2023-05-23T20:01:24.098Z,94435.56
2023-05-23T20:03:50.891Z,94429.75
2023-05-23T20:06:17.554Z,94441.31
2023-05-23T20:08:44.288Z,94448.22
2023-05-23T20:11:12.575Z,94438.22
2023-05-23T20:13:39.360Z,94449.25
2023-05-23T20:16:07.975Z,94439.06
2023-05-23T20:18:34.690Z,94449.06
2023-05-23T20:21:03.559Z,94453.78
2023-05-23T20:23:31.644Z,94452.84
2023-05-23T20:25:58.357Z,94448.84
2023-05-23T20:28:25.117Z,94451.19
2023-05-23T20:30:52.003Z,94451.78
2023-05-23T20:33:19.415Z,94447.72
2023-05-23T20:35:48.429Z,94451.56
2023-05-23T20:38:15.426Z,94446.94
2023-05-23T20:40:42.226Z,94458.00
2023-05-23T20:43:10.347Z,94459.56
2023-05-23T20:45:37.205Z,94455.03
2023-05-23T20:48:03.949Z,94455.66
2023-05-23T20:50:32.438Z,94449.28
2023-05-23T20:53:02.013Z,94459.13
2023-05-23T20:55:29.378Z,94461.84
2023-05-23T20:57:56.172Z,94469.59
2023-05-23T21:00:22.884Z,94462.53
2023-05-23T21:02:49.758Z,94466.50
2023-05-23T21:05:16.629Z,94473.31
2023-05-23T21:07:43.388Z,94472.88
2023-05-23T21:10:10.499Z,94468.88
2023-05-23T21:12:37.214Z,94465.81
2023-05-23T21:15:04.251Z,94466.75
2023-05-23T21:17:30.936Z,94475.94
2023-05-23T21:19:57.679Z,94469.56
2023-05-23T21:22:24.412Z,94461.03
2023-05-23T21:24:51.169Z,94478.53
2023-05-23T21:27:17.916Z,94482.50
2023-05-23T21:29:46.863Z,94489.72
2023-05-23T21:32:13.825Z,94490.88
2023-05-23T21:34:40.580Z,94490.22
2023-05-23T21:37:07.476Z,94496.06
2023-05-23T21:39:47.106Z,94497.72
2023-05-23T21:42:17.938Z,94498.66
2023-05-23T21:44:44.684Z,94493.34
2023-05-23T21:47:11.390Z,94500.53
2023-05-23T21:49:38.487Z,94508.00
2023-05-23T21:52:05.292Z,94510.28
2023-05-23T21:54:32.235Z,94503.66
2023-05-23T21:56:58.957Z,94501.56
2023-05-23T21:59:25.692Z,94502.13
2023-05-23T22:01:52.431Z,94492.13
2023-05-23T22:04:20.256Z,94495.16
2023-05-23T22:06:47.284Z,94494.66
2023-05-23T22:09:15.375Z,94490.53
2023-05-23T22:11:42.558Z,94489.97
2023-05-23T22:14:09.911Z,94495.47
2023-05-23T22:16:39.694Z,94487.19
2023-05-23T22:19:07.240Z,94482.25
2023-05-23T22:21:34.027Z,94491.78
2023-05-23T22:24:00.826Z,94479.31
2023-05-23T22:26:28.158Z,94477.09
2023-05-23T22:28:55.770Z,94487.75
2023-05-23T22:31:24.178Z,94488.69
2023-05-23T22:33:51.414Z,94489.13
2023-05-23T22:36:18.465Z,94492.69
2023-05-23T22:38:45.777Z,94491.38
2023-05-23T22:41:12.537Z,94483.63
2023-05-23T22:43:39.402Z,94482.63
2023-05-23T22:46:07.001Z,94493.72
2023-05-23T22:48:34.292Z,94493.63
2023-05-23T22:51:02.667Z,94490.59
2023-05-23T22:53:30.347Z,94498.00
2023-05-23T22:55:57.597Z,94498.00
2023-05-23T22:58:24.339Z,94487.22
2023-05-23T23:00:51.380Z,94496.66
2023-05-23T23:03:18.432Z,94489.81
2023-05-23T23:05:45.482Z,94493.28
2023-05-23T23:08:12.376Z,94494.28
2023-05-23T23:10:40.324Z,94492.03
2023-05-23T23:13:07.381Z,94493.75
2023-05-23T23:15:34.215Z,94493.53
2023-05-23T23:18:01.365Z,94493.88
2023-05-23T23:20:28.519Z,94496.88
2023-05-23T23:22:55.276Z,94495.44
2023-05-23T23:25:22.113Z,94485.56
2023-05-23T23:27:48.926Z,94487.56
2023-05-23T23:30:15.752Z,94475.94
2023-05-23T23:32:42.473Z,94486.72
2023-05-23T23:35:09.573Z,94477.28
2023-05-23T23:37:36.332Z,94491.28
2023-05-23T23:40:03.204Z,94481.78
2023-05-23T23:42:29.973Z,94473.69
2023-05-23T23:44:56.665Z,94476.13
2023-05-23T23:47:23.373Z,94473.09
2023-05-23T23:49:50.500Z,94473.44
2023-05-23T23:52:17.675Z,94470.31
2023-05-23T23:54:44.603Z,94464.56
2023-05-23T23:57:13.902Z,94463.53
2023-05-23T23:59:43.848Z,94457.69
